Latest Weather Observations for Thredbo Top Station

IDN60901

Issued at 6:55 am EST Tuesday 2 September 2014 (issued every 10 minutes, with the page automatically refreshed every 10 minutes)

About weather observations | Map of Canberra area stations | Latest observations for Canberra area | Other Formats
Station Details ID: 071032 Name: THREDBO AWS Lat: -36.49 Lon: 148.29 Height: 1957.0 m
Data from the previous 72 hours. | See also: Recent months at Thredbo Top Station
Date/Time
EST
Tmp

°C
App
Tmp
°C
Dew
Point
°C
Rel
Hum
%
Delta-T

°C
Wind Press
QNH
hPa
Press
MSL
hPa
Rain
since
9 am
mm
Dir
 
Spd
km/h
Gust
km/h
Spd
kts
Gust
kts
02/06:30am -3.9 -10.6 -4.2 98 -0.1 SSE 22 33 12 18 1009.8 - 1.4
02/06:00am -3.4 -10.4 -3.7 98 0.0 S 24 35 13 19 1009.5 1012.4 1.4
02/05:30am -3.0 -10.0 -3.1 99 -0.1 SSE 24 35 13 19 1009.0 - 1.4
02/05:00am -2.7 -8.3 -2.8 99 -0.1 SSE 17 22 9 12 1009.0 1011.8 1.4
02/04:30am -2.8 -9.4 -2.9 99 -0.1 S 22 30 12 16 1008.7 - 1.4
02/04:00am -2.7 -9.6 -2.8 99 -0.1 S 24 35 13 19 1008.6 1011.4 1.4
02/03:30am -2.2 -9.8 -2.3 99 -0.1 S 28 33 15 18 1008.3 - 1.4
02/03:00am -1.9 -8.3 -2.0 99 -0.1 SSW 22 32 12 17 1008.4 1011.2 1.4
02/02:30am -1.6 -7.0 -1.7 99 0.0 SW 17 24 9 13 1008.3 - 1.4
02/02:00am -1.1 -6.9 -1.2 99 0.0 SW 19 24 10 13 1008.5 1011.3 1.4
02/01:30am -0.9 -9.1 -1.0 99 0.0 W 32 39 17 21 1008.2 - 1.4
02/01:00am -0.8 -9.0 -0.9 99 0.0 W 32 44 17 24 1008.5 1011.3 1.4
02/12:32am -0.4 -9.5 -0.5 99 0.0 WNW 37 56 20 30 1007.9 - 1.4
02/12:30am -0.4 -9.9 -0.5 99 0.0 WNW 39 56 21 30 1007.9 - 1.4
02/12:25am -0.4 -10.6 -0.5 99 0.0 WNW 43 56 23 30 1008.2 - 1.4
02/12:05am -0.3 -14.7 -0.4 99 0.0 WNW 65 83 35 45 1008.3 - 1.4
02/12:00am -0.2 -15.0 -0.3 99 0.0 WNW 67 82 36 44 1008.6 1011.4 1.4
 
Date/Time
EST
Tmp

°C
App
Tmp
°C
Dew
Point
°C
Rel
Hum
%
Delta-T

°C
Wind Press
QNH
hPa
Press
MSL
hPa
Rain
since
9 am
mm
Dir
 
Spd
km/h
Gust
km/h
Spd
kts
Gust
kts
01/11:54pm -0.2 -15.5 -0.3 99 0.0 WNW 70 82 38 44 1008.5 - 1.4
01/11:30pm -0.2 -12.1 -0.3 99 0.0 W 52 70 28 38 1008.3 - 1.4
01/11:00pm -0.1 -13.3 -0.2 99 0.0 W 59 80 32 43 1008.6 1011.4 1.4
01/10:30pm -0.1 -13.7 -0.2 99 0.0 W 61 85 33 46 1009.1 - 1.4
01/10:07pm 0.0 -13.2 -0.1 99 0.0 W 59 78 32 42 1009.3 - 1.4
01/10:00pm 0.0 -13.2 -0.1 99 0.0 W 59 74 32 40 1009.2 1012.0 1.4
01/09:30pm 0.0 -12.8 -0.1 99 0.0 W 57 82 31 44 1009.0 - 1.4
01/09:00pm 0.0 -12.8 -0.1 99 0.0 W 57 80 31 43 1009.1 1011.9 1.4
01/08:30pm 0.1 -12.1 0.0 99 0.0 W 54 74 29 40 1009.3 - 1.4
01/08:00pm 0.5 -11.7 0.4 99 0.0 W 54 74 29 40 1009.6 1012.5 1.4
01/07:30pm 1.3 -11.3 1.2 99 0.0 W 57 82 31 44 1009.3 - 1.2
01/07:00pm 1.6 -11.4 1.5 99 0.0 W 59 85 32 46 1008.8 1011.7 0.4
01/06:57pm 1.8 -10.7 1.7 99 0.0 W 57 76 31 41 1008.6 - 0.4
01/06:55pm 1.7 -11.2 1.6 99 0.0 W 59 70 32 38 1008.8 - 0.2
01/06:30pm 2.3 -15.1 1.0 91 0.5 WNW 82 100 44 54 1008.7 - 0.0
01/06:00pm 2.4 -15.1 1.5 94 0.4 WNW 83 107 45 58 1008.5 1011.3 0.0
01/05:30pm 2.6 -15.8 1.0 89 0.7 WNW 87 107 47 58 1008.5 - 0.0
01/05:00pm 2.6 -15.8 1.0 89 0.7 WNW 87 109 47 59 1008.3 1011.1 0.0
01/04:31pm 2.5 -15.5 0.9 89 0.7 WNW 85 106 46 57 1008.3 - 0.0
01/04:30pm 2.6 -15.4 0.8 88 0.7 WNW 85 102 46 55 1008.5 - 0.0
01/04:00pm 2.8 -16.0 0.5 85 1.0 WNW 89 109 48 59 1008.0 1010.9 0.0
01/03:30pm 3.0 -15.9 -0.3 79 1.3 WNW 89 117 48 63 1008.5 - 0.0
01/03:00pm 2.9 -15.2 0.1 82 1.2 WNW 85 106 46 57 1009.2 1012.0 0.0
01/02:42pm 2.8 -16.0 0.4 84 1.0 WNW 89 109 48 59 1009.4 - 0.0
01/02:30pm 2.8 -16.2 -0.5 79 1.3 WNW 89 106 48 57 1009.1 - 0.0
01/02:00pm 2.2 -18.0 -0.9 80 1.2 WNW 95 113 51 61 1009.5 1012.4 0.0
01/01:30pm 2.6 -16.3 -0.3 81 1.2 WNW 89 111 48 60 1009.9 - 0.0
01/01:00pm 2.5 -15.4 -1.1 77 1.4 WNW 83 102 45 55 1010.7 1013.6 0.0
01/12:47pm 2.3 -15.3 -0.6 81 1.2 WNW 82 100 44 54 1011.2 - 0.0
01/12:30pm 2.4 -14.9 -1.0 78 1.3 WNW 80 96 43 52 1011.5 - 0.0
01/12:03pm 2.4 -13.5 -1.4 76 1.5 WNW 72 93 39 50 1012.2 - 0.0
01/12:00pm 2.3 -13.5 -1.1 78 1.3 WNW 72 89 39 48 1012.2 1015.1 0.0
01/11:30am 1.8 -12.6 -0.6 84 1.0 WNW 65 83 35 45 1013.2 - 0.0
01/11:11am 2.0 -11.3 -0.6 83 1.0 WNW 59 78 32 42 1013.6 - 0.0
01/11:00am 1.9 -10.8 -0.5 84 1.0 WNW 56 70 30 38 1013.9 1016.9 0.0
01/10:30am 2.0 -11.3 -0.4 84 1.0 WNW 59 72 32 39 1014.4 - 0.0
01/10:00am 1.9 -10.8 -0.7 83 1.0 WNW 56 72 30 39 1015.1 1018.2 0.0
01/09:30am 1.9 -10.5 -0.8 82 1.1 WNW 54 67 29 36 1015.2 - 0.0
01/09:00am 1.6 -10.0 -1.1 82 1.1 WNW 50 59 27 32 1015.2 1019.8 0.0
01/08:30am 1.3 -11.1 -0.9 85 0.9 WNW 54 63 29 34 1015.7 - 0.0
01/08:00am 1.1 -10.5 -0.8 87 0.7 WNW 50 65 27 35 1015.9 1020.5 0.0
01/07:30am 1.1 -11.8 -0.8 87 0.7 WNW 57 67 31 36 1015.7 - 0.0
01/07:00am 1.7 -12.7 -3.0 71 1.9 WNW 63 72 34 39 1015.6 1020.2 0.0
01/06:30am 1.7 -13.4 -2.6 73 1.6 WNW 67 80 36 43 1015.1 - 0.0
01/06:00am 1.5 -13.6 -3.0 72 1.8 WNW 67 76 36 41 1014.9 1019.4 0.0
01/05:30am 1.7 -11.5 -4.2 65 2.2 WNW 56 67 30 36 1014.6 - 0.0
01/05:00am 1.4 -10.7 -4.6 64 2.2 W 50 57 27 31 1014.7 1019.2 0.0
01/04:30am 1.8 -10.2 -3.9 66 2.2 W 50 61 27 33 1014.7 - 0.0
01/04:00am 2.3 -9.2 -2.8 69 1.9 W 48 59 26 32 1014.7 1019.2 0.0
01/03:30am 2.0 -8.6 -3.3 68 2.0 W 43 59 23 32 1015.1 - 0.0
01/03:00am 2.6 -7.2 -2.9 67 2.1 W 39 50 21 27 1015.4 1019.9 0.0
01/02:30am 2.4 -6.1 -2.9 68 2.0 W 32 39 17 21 1015.7 - 0.0
01/02:00am 2.2 -7.0 -4.3 62 2.5 W 35 46 19 25 1016.0 1020.6 0.0
01/01:30am 1.7 -8.0 -5.4 59 2.6 W 37 46 20 25 1016.3 - 0.0
01/01:00am 1.1 -8.8 -4.3 67 2.0 W 39 46 21 25 1016.7 1021.3 0.0
01/12:30am 1.5 -7.6 -7.0 53 2.9 W 33 39 18 21 1016.7 - 0.0
01/12:00am 2.0 -6.9 -7.3 50 3.2 W 32 35 17 19 1016.8 1021.5 0.0
 
Date/Time
EST
Tmp

°C
App
Tmp
°C
Dew
Point
°C
Rel
Hum
%
Delta-T

°C
Wind Press
QNH
hPa
Press
MSL
hPa
Rain
since
9 am
mm
Dir
 
Spd
km/h
Gust
km/h
Spd
kts
Gust
kts
31/11:30pm 1.2 -7.0 -7.3 53 2.9 W 28 32 15 17 1017.1 - 0.0
31/11:00pm 2.4 -6.9 -9.8 40 4.0 WNW 33 37 18 20 1017.4 1022.1 0.0
31/10:30pm 2.7 -6.2 -7.7 46 3.6 W 32 35 17 19 1017.8 - 0.0
31/10:00pm 1.9 -5.9 -7.1 51 3.1 W 26 32 14 17 1018.1 1022.8 0.0
31/09:30pm 2.2 -5.6 -7.7 48 3.4 W 26 30 14 16 1018.4 - 0.0
31/09:00pm 0.8 -6.2 -6.7 57 2.6 W 22 26 12 14 1018.6 1023.2 0.0
31/08:30pm 0.5 -4.9 -4.5 69 1.8 W 15 19 8 10 1018.8 - 0.0
31/08:00pm -0.1 -4.9 -5.9 65 2.0 WNW 11 15 6 8 1018.7 1023.4 0.0
31/07:30pm -0.1 -5.9 -4.3 73 1.5 NW 17 19 9 10 1018.6 - 0.0
31/07:00pm -1.2 -6.7 -5.2 74 1.3 NW 15 15 8 8 1018.2 1022.9 0.0
31/06:30pm -0.5 -5.9 -4.7 73 1.4 NW 15 17 8 9 1018.3 - 0.0
31/06:00pm 0.3 -4.7 -4.5 70 1.7 NW 13 15 7 8 1018.2 1022.9 0.0
31/05:30pm 1.0 -3.6 -4.0 69 1.9 NW 11 15 6 8 1018.0 - 0.0
31/05:00pm 2.1 -2.5 -4.4 62 2.5 WNW 11 15 6 8 1017.9 1022.5 0.0
31/04:30pm 3.2 -0.7 -4.5 57 2.8 W 7 9 4 5 1017.6 - 0.0
31/04:00pm 4.1 -0.8 -3.2 59 2.8 WSW 13 19 7 10 1017.6 1022.3 0.0
31/03:30pm 4.5 -0.8 -3.7 55 3.1 WSW 15 20 8 11 1017.8 - 0.0
31/03:00pm 3.3 -2.4 -3.7 60 2.6 WSW 17 22 9 12 1017.8 1022.4 0.0
31/02:30pm 5.5 1.6 -6.4 42 4.3 WSW 6 9 3 5 1018.0 - 0.0
31/02:00pm 4.4 -0.7 -5.4 49 3.5 WSW 13 17 7 9 1018.1 1022.8 0.0
31/01:30pm 5.9 0.4 -10.3 30 5.3 SSW 13 15 7 8 1018.2 - 0.0
31/01:00pm 5.9 0.7 -11.2 28 5.5 SW 11 15 6 8 1018.4 1023.1 0.0
31/12:30pm 2.7 -3.6 -4.3 60 2.6 W 20 26 11 14 1019.1 - 0.0
31/12:00pm 2.2 -4.8 -3.7 65 2.2 W 24 32 13 17 - - 0.0
31/11:30am 2.1 -6.6 -4.8 60 2.6 W 32 37 17 20 - - 0.0
31/11:00am 1.9 -6.9 -5.7 57 2.8 W 32 39 17 21 - - 0.0
31/10:30am 1.8 -7.0 -6.5 54 2.9 W 32 39 17 21 - - 0.0
31/10:00am 1.5 -7.9 -6.5 55 2.8 W 35 44 19 24 - - 0.0
31/09:30am 1.5 -7.6 -7.5 51 3.1 W 33 41 18 22 - - 0.0
31/09:00am 1.5 -7.9 -11.6 37 4.0 W 33 39 18 21 - - 0.0
31/08:30am 1.3 -7.8 -10.2 42 3.6 W 32 37 17 20 - - 0.0
31/08:00am 1.2 -7.7 -11.5 38 3.8 W 30 35 16 19 1021.1 1025.8 0.0
31/07:30am 0.4 -7.6 -10.7 43 3.4 W 26 33 14 18 1021.1 - 0.0
31/07:00am -0.6 -8.3 -11.9 42 3.2 W 24 30 13 16 1021.2 1026.0 0.0
31/06:30am -0.6 -8.7 -11.9 42 3.2 W 26 28 14 15 1021.0 - 0.0
31/06:00am 0.3 -5.9 -9.1 49 3.0 WSW 17 24 9 13 1020.8 1025.6 0.0
31/05:30am 1.4 -4.9 -10.7 40 3.8 SW 17 24 9 13 1020.7 - 0.0
31/05:00am 0.5 -6.1 -9.0 49 3.0 WSW 19 24 10 13 1020.7 1025.5 0.0
31/04:30am -0.8 -7.9 -7.8 59 2.2 WSW 22 26 12 14 1020.6 - 0.0
31/04:00am -0.5 -7.9 -7.9 57 2.4 WSW 24 28 13 15 1020.8 1025.6 0.0
31/03:30am 0.2 -6.9 -8.0 54 2.7 WSW 22 28 12 15 1021.1 - 0.0
31/03:00am 0.1 -6.5 -6.5 61 2.2 W 20 30 11 16 1021.3 1026.1 0.0
31/02:30am 0.3 -6.5 -4.7 69 1.8 W 22 30 12 16 1021.6 - 0.0
31/02:00am 0.3 -5.6 -5.5 65 2.0 WSW 17 26 9 14 1021.9 1026.7 0.0
31/01:30am -0.5 -6.7 -4.5 74 1.4 W 19 24 10 13 1022.2 - 0.0
31/01:00am -0.3 -6.7 -6.7 62 2.1 W 19 22 10 12 1022.4 1027.3 0.0
31/12:30am 1.1 -4.9 -6.7 56 2.7 SW 17 20 9 11 1022.7 - 0.0
31/12:00am -0.1 -5.5 -4.9 70 1.7 WSW 15 22 8 12 1022.9 1027.7 0.0
 
Date/Time
EST
Tmp

°C
App
Tmp
°C
Dew
Point
°C
Rel
Hum
%
Delta-T

°C
Wind Press
QNH
hPa
Press
MSL
hPa
Rain
since
9 am
mm
Dir
 
Spd
km/h
Gust
km/h
Spd
kts
Gust
kts
30/11:30pm 0.7 -4.5 -5.9 61 2.3 WSW 13 17 7 9 1023.1 - 0.0
30/11:00pm -0.9 -6.3 -4.2 78 1.1 WSW 15 19 8 10 1023.5 1028.3 0.0
30/10:30pm 0.6 -5.2 -4.4 69 1.8 WSW 17 20 9 11 1023.7 - 0.0
30/10:00pm 1.0 -4.6 -6.3 58 2.5 WSW 15 19 8 10 1023.8 1028.7 0.0
30/09:30pm 0.3 -4.9 -6.3 61 2.3 SW 13 17 7 9 1023.9 - 0.0
30/09:00pm 0.8 -4.8 -6.5 58 2.5 WSW 15 19 8 10 1024.0 1028.9 0.0
30/08:30pm -0.3 -6.0 -7.8 57 2.4 W 15 19 8 10 1024.0 - 0.0
30/08:00pm -0.5 -5.8 -7.1 61 2.1 WSW 13 15 7 8 1024.2 1029.0 0.0
30/07:30pm 1.0 -3.9 -7.2 54 2.8 WSW 11 13 6 7 1024.0 - 0.0
30/07:00pm 1.7 -3.1 -6.4 55 2.9 SW 11 11 6 6 1023.8 1028.7 0.0
30/06:30pm 0.9 -3.1 -5.5 62 2.3 SSW 7 11 4 6 1023.7 - 0.0
30/06:00pm 1.7 -1.2 -4.6 63 2.3 SW 2 4 1 2 1023.6 1028.4 0.0
30/05:30pm 2.1 -1.6 -4.8 60 2.6 SSW 6 7 3 4 1023.5 - 0.0
30/05:00pm 3.3 -0.5 -5.3 53 3.1 S 6 9 3 5 1023.4 1028.2 0.0
30/04:30pm 3.8 -0.9 -5.1 52 3.2 SW 11 13 6 7 1023.1 - 0.0
30/04:00pm 4.2 -0.5 -5.0 51 3.3 SW 11 13 6 7 1023.1 1028.0 0.0
30/03:30pm 4.7 0.4 -4.6 51 3.4 SW 9 15 5 8 1023.0 - 0.0
30/03:00pm 4.3 -0.6 -3.7 56 3.0 SSW 13 17 7 9 1023.0 1027.9 0.0
30/02:30pm 4.9 1.2 -4.4 51 3.5 SSW 6 11 3 6 1023.1 - 0.0
30/02:00pm 4.9 0.9 -5.7 46 3.8 SW 7 11 4 6 1023.5 1028.3 0.0
30/01:30pm 4.8 0.9 -6.4 44 4.0 SSW 6 9 3 5 1023.7 - 0.0
30/01:00pm 3.5 -1.4 -7.6 44 3.9 WNW 11 11 6 6 1024.2 1029.0 0.0
30/12:30pm 3.8 -0.5 -11.7 31 5.0 WNW 6 7 3 4 1024.6 - 0.0
30/12:00pm 4.7 0.4 -17.6 18 6.2 WNW 4 6 2 3 1025.2 1030.1 0.0
30/11:30am 4.4 -0.1 -14.9 23 5.8 NNW 6 7 3 4 1025.6 - 0.0
30/11:00am 2.7 -2.2 -11.9 33 4.5 NNW 9 11 5 6 1026.0 1030.9 0.0
30/10:30am 3.7 -0.7 -13.1 28 5.2 N 6 11 3 6 1026.2 - 0.0
30/10:00am 3.0 -2.1 -15.1 25 5.2 N 9 11 5 6 1026.4 1031.4 0.0
30/09:30am 3.3 -1.5 -20.8 15 6.0 N 6 11 3 6 1026.7 - 0.0
30/09:00am 2.8 -1.5 -19.8 17 5.7 N 4 9 2 5 1026.8 1031.8 0.0
30/08:30am 1.3 -3.5 -22.4 15 5.4 NW 6 9 3 5 1027.0 - 0.0
30/08:00am 0.1 -4.4 -23.4 15 5.0 NW 4 9 2 5 1027.1 1032.1 0.0
30/07:30am 0.7 -3.8 -23.7 14 5.3 NNW 4 13 2 7 1027.1 - 0.0
30/07:00am 0.9 -4.0 -24.4 13 5.4 NE 6 11 3 6 1027.0 1032.0 0.0

Latest Capital City Observations: Canberra | Sydney | Melbourne | Brisbane | Adelaide | Perth | Hobart | Darwin

Other Formats:

Comma delimited format used in spreadsheet applications
http://www.bom.gov.au/fwo/IDN60903/IDN60903.95909.axf

JavaScript Object Notation format (JSON) in row-major order
http://www.bom.gov.au/fwo/IDN60903/IDN60903.95909.json